Terminal Aerodrome Forecast
Issued by NWS Blacksburg, VA

Current Version | Previous Version | Graphics & Text | Print | Product List | Glossary On
Versions: 1 2 3 4 5 6 7 8 9 10 11 12 13 14 15 16 17 18 19 20 21 22 23 24 25 26 27 28 29 30 31 32 33 34 35 36
000
FTUS41 KRNK 150520
TAFBLF
TAF
KBLF 150520Z 1506/1606 VRB03KT 1 1/2SM BR OVC003
      TEMPO 1506/1510 1/2SM FG VV002
     FM151000 VRB03KT 1SM BR OVC003
      TEMPO 1510/1513 1/2SM FG VV002
     FM151500 13005KT P6SM SCT250
     FM152200 14006KT P6SM SCT100 BKN250
     FM160400 14006KT P6SM BKN090 OVC150=

USA.gov is the U.S. government's official web portal to all federal, state and local government web resources and services.